createdAt,value
2018-09-11T00:01:12.367Z,99.60
2018-09-11T00:03:40.455Z,99.40
2018-09-11T00:06:08.531Z,99.50
2018-09-11T00:08:36.637Z,99.30
2018-09-11T00:11:04.848Z,99.30
2018-09-11T00:13:32.935Z,99.40
2018-09-11T00:16:01.019Z,99.40
2018-09-11T00:18:29.098Z,99.30
2018-09-11T00:20:57.195Z,99.30
2018-09-11T00:23:25.283Z,99.60
2018-09-11T00:25:53.414Z,99.30
2018-09-11T00:28:21.509Z,99.40
2018-09-11T00:30:49.602Z,99.30
2018-09-11T00:33:17.697Z,99.30
2018-09-11T00:35:45.804Z,99.40
2018-09-11T00:38:13.940Z,99.30
2018-09-11T00:40:42.054Z,99.20
2018-09-11T00:43:10.156Z,99.30
2018-09-11T00:45:38.250Z,99.40
2018-09-11T00:48:06.333Z,99.30
2018-09-11T00:50:34.443Z,99.20
2018-09-11T00:53:02.542Z,99.10
2018-09-11T00:55:30.648Z,99.00
2018-09-11T00:57:58.763Z,99.00
2018-09-11T01:00:26.879Z,99.00
2018-09-11T01:02:54.972Z,99.00
2018-09-11T01:05:23.087Z,99.00
2018-09-11T01:07:51.294Z,98.90
2018-09-11T01:10:19.816Z,99.00
2018-09-11T01:12:47.878Z,99.00
2018-09-11T01:15:16.003Z,98.90
2018-09-11T01:17:44.115Z,98.80
2018-09-11T01:20:12.258Z,98.70
2018-09-11T01:22:40.335Z,98.70
2018-09-11T01:25:08.437Z,98.60
2018-09-11T01:27:36.543Z,98.70
2018-09-11T01:30:05.341Z,98.60
2018-09-11T01:32:33.439Z,98.60
2018-09-11T01:35:01.550Z,98.60
2018-09-11T01:37:29.654Z,98.70
2018-09-11T01:39:57.775Z,98.80
2018-09-11T01:42:25.871Z,98.90
2018-09-11T01:44:53.983Z,99.10
2018-09-11T01:47:22.095Z,99.00
2018-09-11T01:49:50.318Z,99.00
2018-09-11T01:52:18.415Z,98.70
2018-09-11T01:54:46.524Z,98.90
2018-09-11T01:57:14.623Z,98.80
2018-09-11T01:59:42.723Z,98.90
2018-09-11T02:02:10.828Z,98.70
2018-09-11T02:04:38.943Z,98.70
2018-09-11T02:07:07.051Z,98.70
2018-09-11T02:09:35.153Z,98.70
2018-09-11T02:12:03.283Z,98.70
2018-09-11T02:14:31.397Z,98.50
2018-09-11T02:16:59.521Z,98.60
2018-09-11T02:19:27.615Z,98.70
2018-09-11T02:21:55.723Z,98.60
2018-09-11T02:24:23.831Z,98.60
2018-09-11T02:26:51.939Z,98.40
2018-09-11T02:29:20.051Z,98.40
2018-09-11T02:31:48.146Z,98.50
2018-09-11T02:34:16.253Z,99.00
2018-09-11T02:36:44.360Z,98.60
2018-09-11T02:39:13.263Z,98.60
2018-09-11T02:41:41.367Z,98.70
2018-09-11T02:44:10.326Z,98.70
2018-09-11T02:46:38.438Z,98.70
2018-09-11T02:49:06.532Z,98.90
2018-09-11T02:51:35.177Z,98.90
2018-09-11T02:54:03.345Z,98.90
2018-09-11T02:56:31.634Z,99.00
2018-09-11T02:58:59.733Z,98.80
2018-09-11T03:01:27.910Z,98.90
2018-09-11T03:03:56.007Z,98.90
2018-09-11T03:06:24.191Z,98.90
2018-09-11T03:08:52.312Z,98.90
2018-09-11T03:11:20.431Z,99.00
2018-09-11T03:13:48.532Z,99.10
2018-09-11T03:16:16.631Z,99.10
2018-09-11T03:18:44.745Z,99.10
2018-09-11T03:21:12.842Z,99.20
2018-09-11T03:23:40.960Z,99.20
2018-09-11T03:26:09.073Z,99.20
2018-09-11T03:28:37.198Z,99.30
2018-09-11T03:31:05.308Z,99.30
2018-09-11T03:33:33.423Z,99.40
2018-09-11T03:36:01.565Z,99.40
2018-09-11T03:38:29.681Z,99.50
2018-09-11T03:40:57.785Z,99.60
2018-09-11T03:43:25.904Z,99.70
2018-09-11T03:45:53.991Z,99.80
2018-09-11T03:48:22.278Z,99.90
2018-09-11T03:50:51.164Z,99.90
2018-09-11T03:53:19.455Z,99.90
2018-09-11T03:55:47.916Z,99.90
2018-09-11T03:58:17.014Z,99.90
2018-09-11T04:00:45.119Z,99.90
2018-09-11T04:03:13.383Z,99.90
2018-09-11T04:05:41.483Z,99.90
2018-09-11T04:08:09.598Z,99.90
2018-09-11T04:10:37.707Z,99.90
2018-09-11T04:13:05.983Z,99.90
2018-09-11T04:15:34.085Z,99.90
2018-09-11T04:18:02.195Z,99.90
2018-09-11T04:20:30.336Z,99.90
2018-09-11T04:22:58.466Z,99.90
2018-09-11T04:25:26.595Z,99.90
2018-09-11T04:27:54.707Z,99.90
2018-09-11T04:30:22.827Z,99.90
2018-09-11T04:32:50.932Z,99.90
2018-09-11T04:35:19.026Z,99.90
2018-09-11T04:37:47.463Z,99.90
2018-09-11T04:40:15.576Z,99.90
2018-09-11T04:42:43.690Z,99.90
2018-09-11T04:45:11.779Z,99.90
2018-09-11T04:47:39.925Z,99.90
2018-09-11T04:50:08.036Z,99.90
2018-09-11T04:52:36.157Z,99.90
2018-09-11T04:55:04.284Z,99.90
2018-09-11T04:57:32.398Z,99.90
2018-09-11T05:00:00.508Z,99.90
2018-09-11T05:02:28.621Z,99.90
2018-09-11T05:04:56.755Z,99.90
2018-09-11T05:07:24.870Z,99.90
2018-09-11T05:09:53.059Z,99.90
2018-09-11T05:12:21.176Z,99.90
2018-09-11T05:14:49.291Z,99.90
2018-09-11T05:17:17.395Z,99.90
2018-09-11T05:19:45.515Z,99.90
2018-09-11T05:22:13.620Z,99.90
2018-09-11T05:24:41.718Z,99.90
2018-09-11T05:27:09.819Z,99.90
2018-09-11T05:29:37.985Z,99.90
2018-09-11T05:32:06.136Z,99.90
2018-09-11T05:34:34.270Z,99.90
2018-09-11T05:37:02.362Z,99.90
2018-09-11T05:39:30.480Z,99.90
2018-09-11T05:41:58.611Z,99.90
2018-09-11T05:44:26.721Z,99.90
2018-09-11T05:46:54.835Z,99.90
2018-09-11T05:49:22.965Z,99.90
2018-09-11T05:51:51.061Z,99.90
2018-09-11T05:54:19.163Z,99.90
2018-09-11T05:56:47.258Z,99.90
2018-09-11T05:59:15.379Z,99.90
2018-09-11T06:01:43.490Z,99.90
2018-09-11T06:04:11.612Z,99.90
2018-09-11T06:06:39.708Z,99.90
2018-09-11T06:09:09.036Z,99.90
2018-09-11T06:11:37.150Z,99.90
2018-09-11T06:14:05.374Z,99.90
2018-09-11T06:16:33.467Z,99.90
2018-09-11T06:19:01.571Z,99.90
2018-09-11T06:21:29.677Z,99.90
2018-09-11T06:23:57.792Z,99.90
2018-09-11T06:26:25.878Z,99.90
2018-09-11T06:28:53.978Z,99.90
2018-09-11T06:31:22.069Z,99.90
2018-09-11T06:33:50.180Z,99.90
2018-09-11T06:36:18.282Z,99.90
2018-09-11T06:38:46.405Z,99.90
2018-09-11T06:41:14.573Z,99.90
2018-09-11T06:43:42.611Z,99.90
2018-09-11T06:46:10.724Z,99.90
2018-09-11T06:48:38.819Z,99.90
2018-09-11T06:51:06.933Z,99.90
2018-09-11T06:53:35.023Z,99.90
2018-09-11T06:56:03.154Z,99.90
2018-09-11T06:58:31.259Z,99.90
2018-09-11T07:00:59.375Z,99.90
2018-09-11T07:03:28.347Z,99.90
2018-09-11T07:05:56.453Z,99.70
2018-09-11T07:08:24.627Z,99.70
2018-09-11T07:10:52.644Z,99.40
2018-09-11T07:13:20.740Z,98.90
2018-09-11T07:15:48.897Z,98.70
2018-09-11T07:18:16.967Z,98.70
2018-09-11T07:20:45.054Z,98.80
2018-09-11T07:23:13.151Z,98.40
2018-09-11T07:25:41.351Z,98.30
2018-09-11T07:28:09.459Z,98.10
2018-09-11T07:30:37.556Z,97.70
2018-09-11T07:33:05.680Z,97.30
2018-09-11T07:35:33.775Z,97.00
2018-09-11T07:38:01.905Z,96.90
2018-09-11T07:40:30.019Z,96.00
2018-09-11T07:42:58.121Z,95.70
2018-09-11T07:45:26.268Z,95.60
2018-09-11T07:47:54.322Z,95.40
2018-09-11T07:50:22.492Z,94.70
2018-09-11T07:52:50.648Z,94.80
2018-09-11T07:55:18.670Z,94.50
2018-09-11T07:57:46.859Z,94.30
2018-09-11T08:00:14.873Z,94.40
2018-09-11T08:02:42.971Z,93.80
2018-09-11T08:05:11.199Z,93.40
2018-09-11T08:07:39.239Z,93.70
2018-09-11T08:10:07.347Z,93.50
2018-09-11T08:12:35.449Z,93.70
2018-09-11T08:15:03.564Z,93.70
2018-09-11T08:17:31.689Z,93.70
2018-09-11T08:19:59.826Z,93.80
2018-09-11T08:22:27.874Z,94.00
2018-09-11T08:24:56.128Z,93.60
2018-09-11T08:27:24.689Z,93.60
2018-09-11T08:29:53.354Z,93.60
2018-09-11T08:32:21.551Z,93.20
2018-09-11T08:34:49.783Z,93.20
2018-09-11T08:37:17.914Z,92.50
2018-09-11T08:39:46.049Z,91.60
2018-09-11T08:42:14.165Z,91.30
2018-09-11T08:44:42.271Z,91.10
2018-09-11T08:47:10.375Z,90.40
2018-09-11T08:49:38.517Z,90.70
2018-09-11T08:52:07.237Z,90.30
2018-09-11T08:54:35.484Z,88.90
2018-09-11T08:57:03.586Z,88.30
2018-09-11T08:59:31.683Z,86.70
2018-09-11T09:01:59.778Z,86.10
2018-09-11T09:04:27.879Z,85.30
2018-09-11T09:06:56.012Z,85.30
2018-09-11T09:09:24.080Z,85.40
2018-09-11T09:11:52.183Z,84.90
2018-09-11T09:14:20.300Z,85.80
2018-09-11T09:16:48.412Z,84.80
2018-09-11T09:19:16.531Z,84.40
2018-09-11T09:21:44.646Z,84.10
2018-09-11T09:24:12.745Z,83.00
2018-09-11T09:26:40.863Z,81.10
2018-09-11T09:29:08.959Z,81.50
2018-09-11T09:31:37.075Z,81.50
2018-09-11T09:34:05.182Z,81.00
2018-09-11T09:36:33.348Z,82.30
2018-09-11T09:39:01.382Z,82.10
2018-09-11T09:41:29.487Z,81.00
2018-09-11T09:43:57.589Z,81.30
2018-09-11T09:46:25.688Z,81.50
2018-09-11T09:48:53.794Z,79.70
2018-09-11T09:51:21.898Z,79.50
2018-09-11T09:53:50.009Z,80.10
2018-09-11T09:56:18.127Z,79.30
2018-09-11T09:58:46.230Z,81.40
2018-09-11T10:01:20.254Z,80.60
2018-09-11T10:03:48.463Z,80.60
2018-09-11T10:06:16.616Z,80.30
2018-09-11T10:08:44.710Z,78.90
2018-09-11T10:11:12.799Z,80.80
2018-09-11T10:13:40.900Z,80.50
2018-09-11T10:16:09.040Z,81.30
2018-09-11T10:18:37.169Z,81.50
2018-09-11T10:21:05.285Z,80.80
2018-09-11T10:23:33.478Z,81.10
2018-09-11T10:26:01.635Z,82.50
2018-09-11T10:28:29.752Z,81.30
2018-09-11T10:30:57.849Z,81.80
2018-09-11T10:33:25.966Z,83.00
2018-09-11T10:35:54.061Z,82.70
2018-09-11T10:38:22.158Z,82.20
2018-09-11T10:40:50.263Z,81.60
2018-09-11T10:43:18.374Z,79.40
2018-09-11T10:45:46.462Z,80.30
2018-09-11T10:48:14.584Z,79.40
2018-09-11T10:50:42.699Z,80.40
2018-09-11T10:53:10.795Z,79.50
2018-09-11T10:55:38.936Z,79.40
2018-09-11T10:58:07.072Z,78.70
2018-09-11T11:00:35.191Z,76.10
2018-09-11T11:03:03.479Z,77.10
2018-09-11T11:05:31.576Z,77.50
2018-09-11T11:07:59.693Z,77.60
2018-09-11T11:10:28.138Z,76.40
2018-09-11T11:12:56.247Z,74.90
2018-09-11T11:15:24.352Z,75.50
2018-09-11T11:17:52.471Z,75.20
2018-09-11T11:20:20.577Z,74.20
2018-09-11T11:22:48.678Z,73.90
2018-09-11T11:25:16.757Z,74.70
2018-09-11T11:27:44.992Z,75.00
2018-09-11T11:30:14.328Z,75.90
2018-09-11T11:32:42.436Z,74.00
2018-09-11T11:35:10.536Z,73.70
2018-09-11T11:37:38.659Z,72.40
2018-09-11T11:40:06.803Z,72.80
2018-09-11T11:42:34.886Z,72.90
2018-09-11T11:45:02.997Z,73.10
2018-09-11T11:47:31.106Z,72.20
2018-09-11T11:49:59.218Z,71.30
2018-09-11T11:52:27.367Z,72.20
2018-09-11T11:54:55.501Z,72.60
2018-09-11T11:57:23.629Z,73.10
2018-09-11T11:59:51.734Z,73.70
2018-09-11T12:02:19.864Z,75.00
2018-09-11T12:04:47.987Z,74.90
2018-09-11T12:07:16.086Z,73.80
2018-09-11T12:09:44.207Z,72.90
2018-09-11T12:12:12.319Z,71.30
2018-09-11T12:14:40.435Z,70.60
2018-09-11T12:17:08.683Z,71.10
2018-09-11T12:19:37.166Z,70.30
2018-09-11T12:22:05.396Z,70.60
2018-09-11T12:24:33.543Z,70.10
2018-09-11T12:27:01.751Z,71.20
2018-09-11T12:29:30.032Z,73.20
2018-09-11T12:31:58.136Z,72.40
2018-09-11T12:34:26.246Z,72.50
2018-09-11T12:36:54.383Z,72.00
2018-09-11T12:39:22.613Z,72.10
2018-09-11T12:41:50.727Z,73.10
2018-09-11T12:44:18.863Z,73.00
2018-09-11T12:46:47.045Z,72.50
2018-09-11T12:49:15.092Z,71.90
2018-09-11T12:51:43.201Z,72.50
2018-09-11T12:54:11.303Z,72.60
2018-09-11T12:56:39.396Z,72.90
2018-09-11T12:59:07.512Z,72.60
2018-09-11T13:01:35.620Z,72.30
2018-09-11T13:04:03.728Z,72.70
2018-09-11T13:06:31.826Z,72.20
2018-09-11T13:08:59.986Z,73.20
2018-09-11T13:11:28.108Z,72.90
2018-09-11T13:13:56.223Z,73.50
2018-09-11T13:16:24.342Z,73.20
2018-09-11T13:18:52.448Z,73.50
2018-09-11T13:21:20.586Z,73.50
2018-09-11T13:23:48.691Z,73.50
2018-09-11T13:26:16.815Z,74.50
2018-09-11T13:28:44.916Z,73.70
2018-09-11T13:31:13.025Z,73.00
2018-09-11T13:33:41.151Z,73.50
2018-09-11T13:36:09.237Z,73.60
2018-09-11T13:38:37.526Z,74.20
2018-09-11T13:41:05.659Z,74.10
2018-09-11T13:43:33.764Z,74.80
2018-09-11T13:46:01.972Z,75.00
2018-09-11T13:48:30.240Z,74.50
2018-09-11T13:50:58.354Z,74.40
2018-09-11T13:53:26.447Z,74.10
2018-09-11T13:55:54.583Z,74.30
2018-09-11T13:58:22.687Z,74.60
2018-09-11T14:00:50.998Z,74.40
2018-09-11T14:03:19.095Z,73.90
2018-09-11T14:05:47.274Z,74.10
2018-09-11T14:08:15.496Z,74.80
2018-09-11T14:10:43.626Z,75.30
2018-09-11T14:13:11.822Z,75.30
2018-09-11T14:15:39.964Z,75.30
2018-09-11T14:18:08.036Z,75.90
2018-09-11T14:20:36.158Z,76.00
2018-09-11T14:23:04.271Z,76.40
2018-09-11T14:25:32.399Z,76.80
2018-09-11T14:28:00.526Z,76.50
2018-09-11T14:30:28.628Z,77.20
2018-09-11T14:32:56.714Z,76.10
2018-09-11T14:35:24.887Z,75.80
2018-09-11T14:37:52.999Z,75.90
2018-09-11T14:40:21.256Z,76.80
2018-09-11T14:42:49.434Z,77.10
2018-09-11T14:45:17.551Z,76.50
2018-09-11T14:47:45.665Z,76.80
2018-09-11T14:50:15.015Z,76.70
2018-09-11T14:52:43.205Z,76.80
2018-09-11T14:55:11.653Z,77.10
2018-09-11T14:57:39.800Z,77.10
2018-09-11T15:00:08.014Z,76.60
2018-09-11T15:02:36.234Z,76.90
2018-09-11T15:05:04.334Z,76.90
2018-09-11T15:07:32.518Z,77.40
2018-09-11T15:10:00.656Z,77.60
2018-09-11T15:12:35.376Z,77.80
2018-09-11T15:15:03.529Z,77.50
2018-09-11T15:17:31.587Z,77.20
2018-09-11T15:19:59.705Z,77.60
2018-09-11T15:22:27.927Z,78.70
2018-09-11T15:24:56.000Z,77.80
2018-09-11T15:27:24.151Z,78.20
2018-09-11T15:29:52.317Z,77.80
2018-09-11T15:32:20.368Z,78.00
2018-09-11T15:34:48.698Z,78.30
2018-09-11T15:37:16.816Z,78.30
2018-09-11T15:39:44.924Z,77.90
2018-09-11T15:42:13.027Z,78.40
2018-09-11T15:44:41.122Z,78.20
2018-09-11T15:47:09.555Z,77.90
2018-09-11T15:49:37.666Z,78.10
2018-09-11T15:52:05.774Z,78.00
2018-09-11T15:54:33.890Z,79.20
2018-09-11T15:57:02.013Z,78.60
2018-09-11T15:59:30.118Z,79.00
2018-09-11T16:01:58.232Z,79.40
2018-09-11T16:04:26.326Z,79.50
2018-09-11T16:06:54.461Z,79.30
2018-09-11T16:09:22.600Z,79.50
2018-09-11T16:11:50.706Z,79.50
2018-09-11T16:14:18.807Z,79.60
2018-09-11T16:16:46.916Z,79.80
2018-09-11T16:19:15.007Z,80.10
2018-09-11T16:21:43.091Z,80.30
2018-09-11T16:24:11.196Z,80.50
2018-09-11T16:26:39.295Z,80.70
2018-09-11T16:29:07.397Z,80.90
2018-09-11T16:31:35.496Z,81.30
2018-09-11T16:34:03.610Z,81.40
2018-09-11T16:36:31.715Z,81.60
2018-09-11T16:38:59.823Z,81.70
2018-09-11T16:41:27.930Z,81.80
2018-09-11T16:43:56.071Z,81.90
2018-09-11T16:46:24.119Z,82.20
2018-09-11T16:48:52.225Z,82.30
2018-09-11T16:51:20.353Z,82.40
2018-09-11T16:53:48.516Z,82.70
2018-09-11T16:56:16.623Z,82.70
2018-09-11T16:58:44.738Z,82.70
2018-09-11T17:01:12.843Z,83.00
2018-09-11T17:03:40.940Z,83.20
2018-09-11T17:06:09.038Z,83.10
2018-09-11T17:08:37.201Z,83.20
2018-09-11T17:11:05.447Z,83.30
2018-09-11T17:13:33.635Z,83.60
2018-09-11T17:16:01.820Z,83.40
2018-09-11T17:18:29.918Z,83.40
2018-09-11T17:20:58.038Z,83.60
2018-09-11T17:23:26.151Z,83.70
2018-09-11T17:25:54.245Z,83.90
2018-09-11T17:28:22.356Z,84.00
2018-09-11T17:30:50.590Z,84.00
2018-09-11T17:33:18.800Z,84.40
2018-09-11T17:35:46.967Z,84.50
2018-09-11T17:38:15.060Z,84.20
2018-09-11T17:40:43.205Z,84.20
2018-09-11T17:43:11.325Z,84.50
2018-09-11T17:45:39.442Z,84.80
2018-09-11T17:48:07.567Z,84.90
2018-09-11T17:50:35.677Z,85.10
2018-09-11T17:53:03.800Z,85.10
2018-09-11T17:55:31.946Z,85.10
2018-09-11T17:58:00.060Z,85.30
2018-09-11T18:00:28.258Z,85.00
2018-09-11T18:02:56.390Z,84.90
2018-09-11T18:05:24.482Z,85.00
2018-09-11T18:07:52.655Z,84.80
2018-09-11T18:10:20.800Z,84.70
2018-09-11T18:12:48.895Z,84.60
2018-09-11T18:15:17.055Z,84.60
2018-09-11T18:17:45.175Z,84.50
2018-09-11T18:20:13.382Z,84.50
2018-09-11T18:22:41.404Z,84.30
2018-09-11T18:25:09.522Z,84.50
2018-09-11T18:27:37.640Z,84.50
2018-09-11T18:30:05.892Z,84.30
2018-09-11T18:32:34.037Z,84.40
2018-09-11T18:35:02.595Z,84.20
2018-09-11T18:37:30.700Z,84.40
2018-09-11T18:39:58.837Z,84.20
2018-09-11T18:42:26.949Z,84.50
2018-09-11T18:44:55.134Z,84.60
2018-09-11T18:47:23.196Z,84.60
2018-09-11T18:49:51.421Z,84.80
2018-09-11T18:52:19.531Z,84.90
2018-09-11T18:54:47.647Z,84.80
2018-09-11T18:57:15.748Z,84.80
2018-09-11T18:59:43.864Z,84.90
2018-09-11T19:02:11.968Z,84.90
2018-09-11T19:04:40.087Z,84.90
2018-09-11T19:07:08.187Z,85.20
2018-09-11T19:09:36.317Z,85.50
2018-09-11T19:12:04.441Z,85.70
2018-09-11T19:14:32.560Z,86.10
2018-09-11T19:17:00.670Z,86.00
2018-09-11T19:19:28.791Z,86.50
2018-09-11T19:21:56.940Z,86.20
2018-09-11T19:24:25.119Z,86.40
2018-09-11T19:26:53.280Z,86.30
2018-09-11T19:29:21.360Z,86.30
2018-09-11T19:31:49.464Z,86.30
2018-09-11T19:34:17.647Z,86.60
2018-09-11T19:36:45.696Z,86.70
2018-09-11T19:39:13.790Z,87.00
2018-09-11T19:41:42.056Z,87.20
2018-09-11T19:44:10.158Z,87.10
2018-09-11T19:46:38.359Z,87.20
2018-09-11T19:49:06.482Z,87.20
2018-09-11T19:51:34.607Z,86.90
2018-09-11T19:54:02.832Z,86.50
2018-09-11T19:56:30.944Z,86.00
2018-09-11T19:58:59.121Z,86.20
2018-09-11T20:01:27.301Z,85.70
2018-09-11T20:03:55.420Z,85.80
2018-09-11T20:06:23.539Z,85.70
2018-09-11T20:08:51.656Z,86.10
2018-09-11T20:11:19.776Z,86.50
2018-09-11T20:13:47.874Z,88.20
2018-09-11T20:16:15.995Z,89.20
2018-09-11T20:18:44.137Z,89.90
2018-09-11T20:21:12.216Z,90.20
2018-09-11T20:23:40.723Z,90.40
2018-09-11T20:26:08.818Z,90.50
2018-09-11T20:28:37.024Z,90.40
2018-09-11T20:31:05.428Z,90.40
2018-09-11T20:33:33.519Z,90.50
2018-09-11T20:36:01.623Z,90.60
2018-09-11T20:38:29.735Z,90.80
2018-09-11T20:40:57.850Z,90.80
2018-09-11T20:43:25.972Z,90.70
2018-09-11T20:45:54.115Z,90.80
2018-09-11T20:48:22.270Z,90.80
2018-09-11T20:50:50.602Z,90.80
2018-09-11T20:53:18.695Z,90.80
2018-09-11T20:55:46.825Z,90.80
2018-09-11T20:58:14.933Z,90.90
2018-09-11T21:00:43.095Z,91.00
2018-09-11T21:03:11.300Z,91.00
2018-09-11T21:05:39.462Z,90.90
2018-09-11T21:08:07.589Z,91.10
2018-09-11T21:10:35.707Z,91.10
2018-09-11T21:13:03.808Z,91.20
2018-09-11T21:15:31.911Z,91.30
2018-09-11T21:18:00.060Z,91.40
2018-09-11T21:20:28.161Z,91.50
2018-09-11T21:22:56.289Z,91.90
2018-09-11T21:25:24.423Z,92.10
2018-09-11T21:27:52.556Z,92.30
2018-09-11T21:30:20.671Z,92.50
2018-09-11T21:32:48.940Z,92.80
2018-09-11T21:35:17.068Z,93.10
2018-09-11T21:37:45.246Z,93.20
2018-09-11T21:40:13.335Z,93.20
2018-09-11T21:42:41.747Z,93.30
2018-09-11T21:45:09.891Z,93.50
2018-09-11T21:47:38.094Z,93.50
2018-09-11T21:50:06.202Z,93.60
2018-09-11T21:52:34.314Z,93.80
2018-09-11T21:55:02.406Z,93.80
2018-09-11T21:57:30.524Z,94.00
2018-09-11T21:59:58.722Z,94.00
2018-09-11T22:02:26.789Z,93.90
2018-09-11T22:04:54.886Z,93.90
2018-09-11T22:07:22.999Z,93.80
2018-09-11T22:09:51.118Z,94.00
2018-09-11T22:12:19.214Z,93.70
2018-09-11T22:14:47.313Z,93.70
2018-09-11T22:17:15.431Z,93.90
2018-09-11T22:19:43.607Z,94.10
2018-09-11T22:22:11.724Z,93.90
2018-09-11T22:24:39.830Z,93.90
2018-09-11T22:27:07.945Z,93.80
2018-09-11T22:29:36.106Z,93.80
2018-09-11T22:32:04.209Z,93.80
2018-09-11T22:34:32.324Z,93.90
2018-09-11T22:37:00.498Z,93.90
2018-09-11T22:39:28.631Z,94.20
2018-09-11T22:41:56.728Z,94.30
2018-09-11T22:44:24.858Z,94.30
2018-09-11T22:46:52.967Z,94.30
2018-09-11T22:49:21.092Z,94.30
2018-09-11T22:51:49.235Z,94.20
2018-09-11T22:54:17.356Z,94.20
2018-09-11T22:56:45.463Z,94.40
2018-09-11T22:59:13.587Z,94.30
2018-09-11T23:01:41.779Z,94.50
2018-09-11T23:04:09.903Z,94.50
2018-09-11T23:06:38.047Z,94.50
2018-09-11T23:09:07.927Z,94.80
2018-09-11T23:11:36.155Z,95.00
2018-09-11T23:14:04.289Z,94.80
2018-09-11T23:16:32.420Z,95.00
2018-09-11T23:19:00.649Z,95.00
2018-09-11T23:21:28.784Z,94.80
2018-09-11T23:23:56.893Z,94.70
2018-09-11T23:26:25.007Z,94.40
2018-09-11T23:28:53.127Z,93.90
2018-09-11T23:31:21.250Z,94.00
2018-09-11T23:33:49.366Z,93.80
2018-09-11T23:36:17.466Z,93.60
2018-09-11T23:38:45.567Z,93.50
2018-09-11T23:41:13.695Z,93.60
2018-09-11T23:43:41.824Z,93.70
2018-09-11T23:46:09.938Z,93.80
2018-09-11T23:48:38.156Z,94.00
2018-09-11T23:51:06.251Z,93.90
2018-09-11T23:53:34.387Z,93.80
2018-09-11T23:56:02.498Z,93.50
2018-09-11T23:58:30.613Z,93.50
